createdAt,value
2019-01-20T00:00:29.817Z,-1.06
2019-01-20T00:01:33.410Z,-1.05
2019-01-20T00:02:36.924Z,-1.01
2019-01-20T00:03:40.370Z,-1.03
2019-01-20T00:04:43.830Z,-1.05
2019-01-20T00:05:47.411Z,-1.07
2019-01-20T00:06:50.846Z,-1.06
2019-01-20T00:07:54.440Z,-1.11
2019-01-20T00:08:57.891Z,-1.10
2019-01-20T00:10:01.327Z,-1.11
2019-01-20T00:11:05.563Z,-1.08
2019-01-20T00:12:09.068Z,-1.08
2019-01-20T00:13:12.591Z,-1.05
2019-01-20T00:14:16.223Z,-1.01
2019-01-20T00:15:20.766Z,-1.00
2019-01-20T00:16:24.210Z,-1.03
2019-01-20T00:17:27.714Z,-1.11
2019-01-20T00:18:31.263Z,-1.16
2019-01-20T00:19:34.707Z,-1.20
2019-01-20T00:20:38.281Z,-1.23
2019-01-20T00:21:41.790Z,-1.25
2019-01-20T00:22:45.248Z,-1.26
2019-01-20T00:23:48.733Z,-1.27
2019-01-20T00:24:52.341Z,-1.29
2019-01-20T00:25:55.859Z,-1.28
2019-01-20T00:26:59.296Z,-1.26
2019-01-20T00:28:02.834Z,-1.26
2019-01-20T00:29:07.007Z,-1.23
2019-01-20T00:30:13.436Z,-1.23
2019-01-20T00:31:16.908Z,-1.30
2019-01-20T00:32:20.344Z,-1.31
2019-01-20T00:33:23.884Z,-1.34
2019-01-20T00:34:27.327Z,-1.37
2019-01-20T00:35:30.907Z,-1.35
2019-01-20T00:36:34.346Z,-1.34
2019-01-20T00:37:37.787Z,-1.35
2019-01-20T00:38:41.246Z,-1.30
2019-01-20T00:39:44.689Z,-1.32
2019-01-20T00:40:48.281Z,-1.33
2019-01-20T00:41:51.727Z,-1.33
2019-01-20T00:42:55.183Z,-1.37
2019-01-20T00:43:58.616Z,-1.38
2019-01-20T00:45:02.964Z,-1.37
2019-01-20T00:46:06.808Z,-1.40
2019-01-20T00:47:10.334Z,-1.43
2019-01-20T00:48:13.917Z,-1.42
2019-01-20T00:49:17.368Z,-1.41
2019-01-20T00:50:20.802Z,-1.41
2019-01-20T00:51:24.315Z,-1.41
2019-01-20T00:52:27.790Z,-1.47
2019-01-20T00:53:31.325Z,-1.45
2019-01-20T00:54:34.763Z,-1.47
2019-01-20T00:55:38.282Z,-1.55
2019-01-20T00:56:41.720Z,-1.60
2019-01-20T00:57:45.522Z,-1.67
2019-01-20T00:58:48.923Z,-1.81
2019-01-20T00:59:52.360Z,-1.85
2019-01-20T01:00:55.794Z,-1.75
2019-01-20T01:01:59.308Z,-1.68
2019-01-20T01:03:02.802Z,-1.66
2019-01-20T01:04:06.384Z,-1.65
2019-01-20T01:05:10.035Z,-1.67
2019-01-20T01:06:13.512Z,-1.64
2019-01-20T01:07:17.031Z,-1.64
2019-01-20T01:08:20.496Z,-1.72
2019-01-20T01:09:24.010Z,-1.75
2019-01-20T01:10:27.522Z,-1.77
2019-01-20T01:11:31.874Z,-1.77
2019-01-20T01:12:35.546Z,-1.79
2019-01-20T01:13:39.140Z,-1.81
2019-01-20T01:14:43.051Z,-1.79
2019-01-20T01:15:46.492Z,-1.87
2019-01-20T01:16:50.103Z,-1.91
2019-01-20T01:17:53.572Z,-1.95
2019-01-20T01:18:57.043Z,-1.99
2019-01-20T01:20:00.558Z,-1.98
2019-01-20T01:21:04.073Z,-1.97
2019-01-20T01:22:07.670Z,-1.97
2019-01-20T01:23:11.271Z,-1.94
2019-01-20T01:24:14.707Z,-1.95
2019-01-20T01:25:18.484Z,-1.97
2019-01-20T01:26:21.989Z,-1.99
2019-01-20T01:27:25.455Z,-1.97
2019-01-20T01:28:28.986Z,-1.97
2019-01-20T01:29:32.490Z,-1.92
2019-01-20T01:30:35.939Z,-1.91
2019-01-20T01:31:39.444Z,-1.93
2019-01-20T01:32:42.928Z,-1.97
2019-01-20T01:33:46.372Z,-1.97
2019-01-20T01:34:49.808Z,-1.97
2019-01-20T01:35:53.307Z,-1.96
2019-01-20T01:36:56.740Z,-2.00
2019-01-20T01:38:00.203Z,-1.99
2019-01-20T01:39:05.230Z,-2.01
2019-01-20T01:40:11.613Z,-1.99
2019-01-20T01:41:15.208Z,-1.94
2019-01-20T01:42:18.729Z,-1.97
2019-01-20T01:43:22.263Z,-1.97
2019-01-20T01:44:25.774Z,-2.00
2019-01-20T01:45:29.284Z,-2.00
2019-01-20T01:46:32.729Z,-2.00
2019-01-20T01:47:36.162Z,-2.00
2019-01-20T01:48:39.622Z,-1.97
2019-01-20T01:49:43.142Z,-1.97
2019-01-20T01:50:46.586Z,-1.95
2019-01-20T01:51:50.045Z,-1.95
2019-01-20T01:52:53.571Z,-1.98
2019-01-20T01:53:57.019Z,-1.95
2019-01-20T01:55:00.466Z,-1.96
2019-01-20T01:56:04.055Z,-1.97
2019-01-20T01:57:07.548Z,-1.94
2019-01-20T01:58:11.017Z,-1.92
2019-01-20T01:59:14.527Z,-1.94
2019-01-20T02:00:20.478Z,-1.94
2019-01-20T02:01:23.945Z,-1.95
2019-01-20T02:02:27.393Z,-1.95
2019-01-20T02:03:30.955Z,-1.97
2019-01-20T02:04:34.467Z,-1.95
2019-01-20T02:05:37.991Z,-1.90
2019-01-20T02:06:41.500Z,-1.94
2019-01-20T02:07:45.047Z,-1.98
2019-01-20T02:08:48.498Z,-2.00
2019-01-20T02:09:51.964Z,-2.01
2019-01-20T02:10:55.397Z,-2.01
2019-01-20T02:11:59.050Z,-2.02
2019-01-20T02:13:02.616Z,-1.99
2019-01-20T02:14:06.321Z,-1.98
2019-01-20T02:15:12.013Z,-1.99
2019-01-20T02:16:15.535Z,-1.95
2019-01-20T02:17:19.053Z,-1.92
2019-01-20T02:18:22.493Z,-1.91
2019-01-20T02:19:26.033Z,-2.01
2019-01-20T02:20:29.565Z,-2.04
2019-01-20T02:21:33.149Z,-2.07
2019-01-20T02:22:36.762Z,-2.07
2019-01-20T02:23:40.220Z,-2.13
2019-01-20T02:24:43.678Z,-2.14
2019-01-20T02:25:47.141Z,-2.07
2019-01-20T02:26:50.598Z,-2.03
2019-01-20T02:27:54.773Z,-2.11
2019-01-20T02:28:58.223Z,-2.09
2019-01-20T02:30:01.758Z,-2.10
2019-01-20T02:31:05.398Z,-2.11
2019-01-20T02:32:08.906Z,-2.11
2019-01-20T02:33:12.414Z,-2.15
2019-01-20T02:34:15.891Z,-2.18
2019-01-20T02:35:19.531Z,-2.19
2019-01-20T02:36:22.972Z,-2.19
2019-01-20T02:37:26.484Z,-2.15
2019-01-20T02:38:29.925Z,-2.17
2019-01-20T02:39:33.372Z,-2.19
2019-01-20T02:40:36.837Z,-2.18
2019-01-20T02:41:40.278Z,-2.16
2019-01-20T02:42:43.706Z,-2.14
2019-01-20T02:43:47.222Z,-2.11
2019-01-20T02:44:50.656Z,-2.18
2019-01-20T02:45:54.178Z,-2.20
2019-01-20T02:46:57.632Z,-2.21
2019-01-20T02:48:01.162Z,-2.17
2019-01-20T02:49:04.735Z,-2.12
2019-01-20T02:50:11.136Z,-2.09
2019-01-20T02:51:14.576Z,-2.07
2019-01-20T02:52:18.027Z,-2.08
2019-01-20T02:53:21.492Z,-2.10
2019-01-20T02:54:25.078Z,-2.10
2019-01-20T02:55:28.678Z,-2.11
2019-01-20T02:56:32.121Z,-2.13
2019-01-20T02:57:35.650Z,-2.12
2019-01-20T02:58:39.086Z,-2.13
2019-01-20T02:59:42.604Z,-2.13
2019-01-20T03:00:46.184Z,-2.11
2019-01-20T03:01:49.762Z,-2.14
2019-01-20T03:02:53.288Z,-2.11
2019-01-20T03:03:56.793Z,-2.06
2019-01-20T03:05:00.263Z,-2.09
2019-01-20T03:06:03.894Z,-2.17
2019-01-20T03:07:07.330Z,-2.25
2019-01-20T03:08:10.768Z,-2.27
2019-01-20T03:09:14.204Z,-2.23
2019-01-20T03:10:17.806Z,-2.30
2019-01-20T03:11:21.398Z,-2.35
2019-01-20T03:12:24.908Z,-2.38
2019-01-20T03:13:28.346Z,-2.37
2019-01-20T03:14:31.858Z,-2.32
2019-01-20T03:15:35.458Z,-2.34
2019-01-20T03:16:38.967Z,-2.46
2019-01-20T03:17:42.478Z,-2.47
2019-01-20T03:18:45.988Z,-2.44
2019-01-20T03:19:49.497Z,-2.40
2019-01-20T03:20:52.945Z,-2.42
2019-01-20T03:21:56.478Z,-2.44
2019-01-20T03:22:59.914Z,-2.40
2019-01-20T03:24:03.352Z,-2.60
2019-01-20T03:25:09.850Z,-2.36
2019-01-20T03:26:13.315Z,-2.33
2019-01-20T03:27:16.777Z,-2.37
2019-01-20T03:28:20.217Z,-2.37
2019-01-20T03:29:23.652Z,-2.39
2019-01-20T03:30:27.112Z,-2.38
2019-01-20T03:31:30.633Z,-2.35
2019-01-20T03:32:34.078Z,-2.37
2019-01-20T03:33:37.581Z,-2.39
2019-01-20T03:34:41.031Z,-2.37
2019-01-20T03:35:44.559Z,-2.41
2019-01-20T03:36:48.003Z,-2.39
2019-01-20T03:37:51.520Z,-2.33
2019-01-20T03:38:54.977Z,-2.34
2019-01-20T03:39:58.423Z,-2.36
2019-01-20T03:41:01.944Z,-2.39
2019-01-20T03:42:11.931Z,-2.42
2019-01-20T03:43:10.848Z,-2.43
2019-01-20T03:44:14.357Z,-2.44
2019-01-20T03:45:21.160Z,-2.47
2019-01-20T03:46:24.630Z,-2.45
2019-01-20T03:47:28.141Z,-2.44
2019-01-20T03:48:31.643Z,-2.44
2019-01-20T03:49:35.155Z,-2.47
2019-01-20T03:50:38.611Z,-2.47
2019-01-20T03:51:42.049Z,-2.38
2019-01-20T03:52:45.740Z,-2.38
2019-01-20T03:53:49.251Z,-2.41
2019-01-20T03:54:52.762Z,-2.40
2019-01-20T03:55:56.364Z,-2.41
2019-01-20T03:56:59.973Z,-2.42
2019-01-20T03:58:03.478Z,-2.44
2019-01-20T03:59:06.981Z,-2.47
2019-01-20T04:00:13.535Z,-2.46
2019-01-20T04:01:16.988Z,-2.47
2019-01-20T04:02:21.922Z,-2.53
2019-01-20T04:03:25.364Z,-2.56
2019-01-20T04:04:28.805Z,-2.56
2019-01-20T04:05:32.337Z,-2.52
2019-01-20T04:06:35.850Z,-2.51
2019-01-20T04:07:39.292Z,-2.54
2019-01-20T04:08:42.735Z,-2.55
2019-01-20T04:09:46.169Z,-2.52
2019-01-20T04:10:49.627Z,-2.55
2019-01-20T04:11:53.065Z,-2.53
2019-01-20T04:12:56.579Z,-2.48
2019-01-20T04:14:00.009Z,-2.47
2019-01-20T04:15:03.585Z,-2.48
2019-01-20T04:16:07.030Z,-2.52
2019-01-20T04:17:18.499Z,-2.53
2019-01-20T04:18:21.940Z,-2.54
2019-01-20T04:19:25.383Z,-2.53
2019-01-20T04:20:28.851Z,-2.56
2019-01-20T04:21:32.392Z,-2.57
2019-01-20T04:22:35.892Z,-2.59
2019-01-20T04:23:39.337Z,-2.59
2019-01-20T04:24:42.812Z,-2.61
2019-01-20T04:25:47.711Z,-2.58
2019-01-20T04:26:51.154Z,-2.60
2019-01-20T04:27:54.661Z,-2.58
2019-01-20T04:28:58.101Z,-2.57
2019-01-20T04:30:01.534Z,-2.54
2019-01-20T04:31:05.075Z,-2.53
2019-01-20T04:32:08.512Z,-2.51
2019-01-20T04:33:12.018Z,-2.50
2019-01-20T04:34:15.468Z,-2.52
2019-01-20T04:35:19.046Z,-2.58
2019-01-20T04:36:22.510Z,-2.59
2019-01-20T04:37:26.035Z,-2.59
2019-01-20T04:38:29.472Z,-2.56
2019-01-20T04:39:32.986Z,-2.49
2019-01-20T04:40:36.468Z,-2.47
2019-01-20T04:41:39.973Z,-2.46
2019-01-20T04:42:43.486Z,-2.47
2019-01-20T04:43:46.930Z,-2.49
2019-01-20T04:44:50.372Z,-2.50
2019-01-20T04:45:53.863Z,-2.50
2019-01-20T04:46:57.370Z,-2.53
2019-01-20T04:48:00.815Z,-2.59
2019-01-20T04:49:04.400Z,-2.59
2019-01-20T04:50:13.668Z,-2.56
2019-01-20T04:51:17.121Z,-2.55
2019-01-20T04:52:20.639Z,-2.54
2019-01-20T04:53:24.152Z,-2.50
2019-01-20T04:54:27.668Z,-2.45
2019-01-20T04:55:31.122Z,-2.44
2019-01-20T04:56:34.581Z,-2.45
2019-01-20T04:57:38.330Z,-2.42
2019-01-20T04:58:41.766Z,-2.41
2019-01-20T04:59:45.207Z,-2.41
2019-01-20T05:00:48.670Z,-2.44
2019-01-20T05:01:52.196Z,-2.47
2019-01-20T05:02:55.699Z,-2.45
2019-01-20T05:03:59.134Z,-2.43
2019-01-20T05:05:02.716Z,-2.46
2019-01-20T05:06:06.274Z,-2.49
2019-01-20T05:07:09.706Z,-2.47
2019-01-20T05:08:13.172Z,-2.44
2019-01-20T05:09:16.662Z,-2.43
2019-01-20T05:10:20.196Z,-2.40
2019-01-20T05:11:23.710Z,-2.43
2019-01-20T05:12:27.171Z,-2.42
2019-01-20T05:13:30.608Z,-2.44
2019-01-20T05:14:34.103Z,-2.46
2019-01-20T05:15:37.609Z,-2.48
2019-01-20T05:16:41.174Z,-2.53
2019-01-20T05:17:44.683Z,-2.53
2019-01-20T05:18:48.253Z,-2.54
2019-01-20T05:19:51.700Z,-2.56
2019-01-20T05:20:55.166Z,-2.57
2019-01-20T05:21:58.602Z,-2.59
2019-01-20T05:23:02.039Z,-2.56
2019-01-20T05:24:05.477Z,-2.53
2019-01-20T05:25:10.852Z,-2.51
2019-01-20T05:26:14.390Z,-2.54
2019-01-20T05:27:17.835Z,-2.49
2019-01-20T05:28:21.277Z,-2.52
2019-01-20T05:29:24.725Z,-2.57
2019-01-20T05:30:28.336Z,-2.66
2019-01-20T05:31:31.847Z,-2.72
2019-01-20T05:32:35.287Z,-2.75
2019-01-20T05:33:38.734Z,-2.72
2019-01-20T05:34:42.186Z,-2.72
2019-01-20T05:35:45.647Z,-2.69
2019-01-20T05:36:49.092Z,-2.70
2019-01-20T05:37:52.598Z,-2.67
2019-01-20T05:38:56.037Z,-2.72
2019-01-20T05:39:59.480Z,-2.75
2019-01-20T05:41:02.942Z,-2.85
2019-01-20T05:42:06.450Z,-2.77
2019-01-20T05:43:09.889Z,-2.75
2019-01-20T05:44:13.322Z,-2.72
2019-01-20T05:45:22.052Z,-2.69
2019-01-20T05:46:25.519Z,-2.68
2019-01-20T05:47:29.034Z,-2.66
2019-01-20T05:48:32.893Z,-2.67
2019-01-20T05:49:36.289Z,-2.68
2019-01-20T05:50:39.819Z,-2.74
2019-01-20T05:51:43.242Z,-2.81
2019-01-20T05:52:46.749Z,-2.83
2019-01-20T05:53:50.198Z,-2.81
2019-01-20T05:54:53.721Z,-2.76
2019-01-20T05:55:57.156Z,-2.71
2019-01-20T05:57:00.648Z,-2.65
2019-01-20T05:58:04.137Z,-2.61
2019-01-20T05:59:07.540Z,-2.64
2019-01-20T06:00:14.091Z,-2.65
2019-01-20T06:01:17.547Z,-2.67
2019-01-20T06:02:20.985Z,-2.66
2019-01-20T06:03:24.429Z,-2.68
2019-01-20T06:04:27.858Z,-2.66
2019-01-20T06:05:31.339Z,-2.69
2019-01-20T06:06:34.748Z,-2.71
2019-01-20T06:07:38.270Z,-2.69
2019-01-20T06:08:41.702Z,-2.62
2019-01-20T06:09:45.149Z,-2.62
2019-01-20T06:10:48.620Z,-2.64
2019-01-20T06:11:52.070Z,-2.72
2019-01-20T06:12:55.683Z,-2.78
2019-01-20T06:13:59.121Z,-2.80
2019-01-20T06:15:02.567Z,-2.89
2019-01-20T06:16:06.047Z,-2.83
2019-01-20T06:17:09.518Z,-2.79
2019-01-20T06:18:12.966Z,-2.82
2019-01-20T06:19:16.392Z,-2.79
2019-01-20T06:20:19.965Z,-2.80
2019-01-20T06:21:23.433Z,-2.80
2019-01-20T06:22:26.877Z,-2.77
2019-01-20T06:23:30.323Z,-2.80
2019-01-20T06:24:35.343Z,-2.85
2019-01-20T06:25:39.300Z,-2.86
2019-01-20T06:26:42.955Z,-2.86
2019-01-20T06:27:46.470Z,-2.87
2019-01-20T06:28:49.915Z,-2.86
2019-01-20T06:29:53.455Z,-2.87
2019-01-20T06:30:56.891Z,-2.89
2019-01-20T06:32:00.351Z,-2.90
2019-01-20T06:33:03.857Z,-2.87
2019-01-20T06:34:07.298Z,-2.85
2019-01-20T06:35:10.816Z,-2.88
2019-01-20T06:36:14.257Z,-2.88
2019-01-20T06:37:17.791Z,-2.87
2019-01-20T06:38:21.228Z,-2.85
2019-01-20T06:39:24.668Z,-2.83
2019-01-20T06:40:28.240Z,-2.80
2019-01-20T06:41:31.713Z,-2.82
2019-01-20T06:42:35.144Z,-2.77
2019-01-20T06:43:38.650Z,-2.77
2019-01-20T06:44:42.089Z,-2.79
2019-01-20T06:45:45.612Z,-2.80
2019-01-20T06:46:49.067Z,-2.70
2019-01-20T06:47:52.598Z,-2.54
2019-01-20T06:48:56.078Z,-2.44
2019-01-20T06:49:59.524Z,-2.39
2019-01-20T06:51:02.986Z,-2.46
2019-01-20T06:52:06.509Z,-2.50
2019-01-20T06:53:10.014Z,-2.61
2019-01-20T06:54:13.463Z,-2.67
2019-01-20T06:55:17.081Z,-2.74
2019-01-20T06:56:20.614Z,-2.76
2019-01-20T06:57:24.069Z,-2.74
2019-01-20T06:58:27.505Z,-2.75
2019-01-20T06:59:30.981Z,-2.74
2019-01-20T07:00:34.458Z,-2.69
2019-01-20T07:01:37.898Z,-2.66
2019-01-20T07:02:41.363Z,-2.63
2019-01-20T07:03:44.873Z,-2.61
2019-01-20T07:04:48.467Z,-2.59
2019-01-20T07:05:51.909Z,-2.59
2019-01-20T07:06:55.344Z,-2.58
2019-01-20T07:07:58.912Z,-2.57
2019-01-20T07:09:02.340Z,-2.60
2019-01-20T07:10:08.712Z,-2.61
2019-01-20T07:11:12.243Z,-2.72
2019-01-20T07:12:15.656Z,-2.67
2019-01-20T07:13:19.122Z,-2.69
2019-01-20T07:14:22.555Z,-2.76
2019-01-20T07:15:26.057Z,-2.74
2019-01-20T07:16:29.563Z,-2.77
2019-01-20T07:17:33.002Z,-2.75
2019-01-20T07:18:36.492Z,-2.72
2019-01-20T07:19:39.939Z,-2.70
2019-01-20T07:20:43.520Z,-2.67
2019-01-20T07:21:46.953Z,-2.67
2019-01-20T07:22:50.635Z,-2.66
2019-01-20T07:23:54.151Z,-2.62
2019-01-20T07:24:57.595Z,-2.59
2019-01-20T07:26:01.039Z,-2.55
2019-01-20T07:27:04.844Z,-2.56
2019-01-20T07:28:08.302Z,-2.55
2019-01-20T07:29:11.809Z,-2.53
2019-01-20T07:30:22.299Z,-2.51
2019-01-20T07:31:25.803Z,-2.51
2019-01-20T07:32:29.318Z,-2.52
2019-01-20T07:33:32.782Z,-2.56
2019-01-20T07:34:36.382Z,-2.61
2019-01-20T07:35:39.908Z,-2.65
2019-01-20T07:36:43.479Z,-2.67
2019-01-20T07:37:47.191Z,-2.75
2019-01-20T07:38:50.639Z,-2.78
2019-01-20T07:39:54.250Z,-2.81
2019-01-20T07:40:57.696Z,-2.79
2019-01-20T07:42:01.213Z,-2.75
2019-01-20T07:43:04.798Z,-2.69
2019-01-20T07:44:08.236Z,-2.65
2019-01-20T07:45:13.223Z,-2.62
2019-01-20T07:46:16.667Z,-2.59
2019-01-20T07:47:20.102Z,-2.55
2019-01-20T07:48:23.565Z,-2.50
2019-01-20T07:49:27.069Z,-2.46
2019-01-20T07:50:30.742Z,-2.52
2019-01-20T07:51:34.197Z,-2.53
2019-01-20T07:52:37.631Z,-2.52
2019-01-20T07:53:41.100Z,-2.51
2019-01-20T07:54:44.615Z,-2.51
2019-01-20T07:55:48.056Z,-2.48
2019-01-20T07:56:51.608Z,-2.46
2019-01-20T07:57:55.060Z,-2.42
2019-01-20T07:58:58.590Z,-2.35
2019-01-20T08:00:02.025Z,-2.33
2019-01-20T08:01:05.533Z,-2.31
2019-01-20T08:02:08.962Z,-2.27
2019-01-20T08:03:12.452Z,-2.27
2019-01-20T08:04:15.893Z,-2.29
2019-01-20T08:05:19.758Z,-2.34
2019-01-20T08:06:23.210Z,-2.33
2019-01-20T08:07:26.653Z,-2.29
2019-01-20T08:08:30.121Z,-2.26
2019-01-20T08:09:33.563Z,-2.23
2019-01-20T08:10:37.037Z,-2.16
2019-01-20T08:11:40.850Z,-2.12
2019-01-20T08:12:44.361Z,-2.13
2019-01-20T08:13:47.844Z,-2.12
2019-01-20T08:14:51.414Z,-2.10
2019-01-20T08:15:54.857Z,-2.00
2019-01-20T08:16:58.360Z,-1.96
2019-01-20T08:18:01.845Z,-1.89
2019-01-20T08:19:05.358Z,-1.82
2019-01-20T08:20:14.180Z,-1.77
2019-01-20T08:21:17.611Z,-1.76
2019-01-20T08:22:21.123Z,-1.74
2019-01-20T08:23:24.575Z,-1.71
2019-01-20T08:24:28.007Z,-1.69
2019-01-20T08:25:31.506Z,-1.67
2019-01-20T08:26:34.938Z,-1.66
2019-01-20T08:27:38.445Z,-1.60
2019-01-20T08:28:41.907Z,-1.52
2019-01-20T08:29:45.343Z,-1.47
2019-01-20T08:30:48.860Z,-1.43
2019-01-20T08:31:52.306Z,-1.42
2019-01-20T08:32:56.301Z,-1.40
2019-01-20T08:33:59.805Z,-1.34
2019-01-20T08:35:03.700Z,-1.28
2019-01-20T08:36:07.207Z,-1.27
2019-01-20T08:37:10.641Z,-1.25
2019-01-20T08:38:14.151Z,-1.24
2019-01-20T08:39:17.603Z,-1.19
2019-01-20T08:40:26.555Z,-1.17
2019-01-20T08:41:29.983Z,-1.11
2019-01-20T08:42:33.533Z,-1.04
2019-01-20T08:43:37.430Z,-1.07
2019-01-20T08:44:40.872Z,-1.07
2019-01-20T08:45:53.138Z,-1.03
2019-01-20T08:46:56.644Z,-0.98
2019-01-20T08:48:03.209Z,-0.89
2019-01-20T08:49:06.809Z,-0.82
2019-01-20T08:50:11.081Z,-0.74
2019-01-20T08:51:14.588Z,-0.75
2019-01-20T08:52:18.039Z,-0.74
2019-01-20T08:53:21.552Z,-0.76
2019-01-20T08:54:25.006Z,-0.75
2019-01-20T08:55:28.424Z,-0.73
2019-01-20T08:56:31.931Z,-0.69
2019-01-20T08:57:35.437Z,-0.65
2019-01-20T08:58:38.972Z,-0.59
2019-01-20T08:59:42.412Z,-0.56
2019-01-20T09:00:45.925Z,-0.46
2019-01-20T09:01:49.359Z,-0.45
2019-01-20T09:02:52.869Z,-0.44
2019-01-20T09:03:56.510Z,-0.44
2019-01-20T09:05:00.016Z,-0.43
2019-01-20T09:06:03.523Z,-0.40
2019-01-20T09:07:07.290Z,-0.34
2019-01-20T09:08:12.463Z,-0.32
2019-01-20T09:09:16.101Z,-0.29
2019-01-20T09:10:22.537Z,-0.23
2019-01-20T09:11:26.130Z,-0.23
2019-01-20T09:12:30.236Z,-0.21
2019-01-20T09:13:39.571Z,-0.17
2019-01-20T09:14:39.248Z,-0.12
2019-01-20T09:15:42.844Z,-0.10
2019-01-20T09:16:46.287Z,-0.04
2019-01-20T09:17:49.861Z,0.03
2019-01-20T09:18:53.376Z,0.09
2019-01-20T09:19:56.931Z,0.15
2019-01-20T09:21:00.465Z,0.21
2019-01-20T09:22:04.187Z,0.23
2019-01-20T09:23:07.688Z,0.26
2019-01-20T09:24:11.192Z,0.30
2019-01-20T09:25:15.402Z,0.29
2019-01-20T09:26:19.032Z,0.26
2019-01-20T09:27:22.526Z,0.32
2019-01-20T09:28:25.971Z,0.38
2019-01-20T09:29:29.409Z,0.45
2019-01-20T09:30:33.041Z,0.57
2019-01-20T09:31:36.563Z,0.66
2019-01-20T09:32:40.293Z,0.68
2019-01-20T09:33:44.042Z,0.71
2019-01-20T09:34:47.475Z,0.67
2019-01-20T09:35:50.959Z,0.69
2019-01-20T09:36:54.471Z,0.71
2019-01-20T09:37:57.911Z,0.71
2019-01-20T09:39:01.413Z,0.69
2019-01-20T09:40:07.172Z,0.69
2019-01-20T09:41:10.623Z,0.75
2019-01-20T09:42:14.082Z,0.80
2019-01-20T09:43:17.565Z,0.85
2019-01-20T09:44:20.996Z,0.91
2019-01-20T09:45:30.139Z,0.94
2019-01-20T09:46:33.648Z,1.01
2019-01-20T09:47:37.168Z,1.03
2019-01-20T09:48:40.683Z,1.02
2019-01-20T09:49:44.117Z,1.01
2019-01-20T09:50:47.634Z,1.01
2019-01-20T09:51:51.476Z,1.02
2019-01-20T09:52:54.971Z,1.02
2019-01-20T09:53:58.461Z,1.04
2019-01-20T09:55:01.895Z,1.05
2019-01-20T09:56:05.666Z,1.14
2019-01-20T09:57:09.150Z,1.18
2019-01-20T09:58:12.826Z,1.23
2019-01-20T09:59:16.331Z,1.26
2019-01-20T10:00:22.407Z,1.28
2019-01-20T10:01:25.860Z,1.26
2019-01-20T10:02:29.369Z,1.25
2019-01-20T10:03:32.962Z,1.20
2019-01-20T10:04:36.399Z,1.22
2019-01-20T10:05:39.987Z,1.19
2019-01-20T10:06:43.662Z,1.21
2019-01-20T10:07:47.233Z,1.19
2019-01-20T10:08:50.680Z,1.22
2019-01-20T10:09:54.157Z,1.26
2019-01-20T10:10:57.654Z,1.31
2019-01-20T10:12:01.231Z,1.31
2019-01-20T10:13:04.753Z,1.34
2019-01-20T10:14:08.205Z,1.36
2019-01-20T10:15:14.333Z,1.37
2019-01-20T10:16:17.896Z,1.39
2019-01-20T10:17:21.377Z,1.43
2019-01-20T10:18:24.839Z,1.51
2019-01-20T10:19:28.408Z,1.55
2019-01-20T10:20:36.635Z,1.55
2019-01-20T10:21:40.179Z,1.57
2019-01-20T10:22:43.690Z,1.54
2019-01-20T10:23:47.131Z,1.59
2019-01-20T10:24:50.689Z,1.66
2019-01-20T10:25:54.195Z,1.67
2019-01-20T10:26:57.646Z,1.66
2019-01-20T10:28:01.150Z,1.69
2019-01-20T10:29:04.724Z,1.62
2019-01-20T10:30:13.899Z,1.56
2019-01-20T10:31:17.405Z,1.59
2019-01-20T10:32:20.940Z,1.66
2019-01-20T10:33:24.373Z,1.77
2019-01-20T10:34:27.802Z,1.77
2019-01-20T10:35:32.944Z,1.79
2019-01-20T10:36:36.382Z,1.81
2019-01-20T10:37:40.002Z,1.84
2019-01-20T10:38:43.436Z,1.89
2019-01-20T10:39:46.958Z,1.91
2019-01-20T10:40:50.568Z,1.96
2019-01-20T10:41:54.153Z,2.00
2019-01-20T10:42:57.575Z,2.04
2019-01-20T10:44:02.271Z,1.99
2019-01-20T10:45:08.859Z,1.92
2019-01-20T10:46:12.573Z,1.93
2019-01-20T10:47:16.118Z,1.97
2019-01-20T10:48:19.718Z,1.96
2019-01-20T10:49:23.146Z,1.93
2019-01-20T10:50:26.733Z,1.85
2019-01-20T10:51:30.176Z,1.87
2019-01-20T10:52:33.708Z,1.89
2019-01-20T10:53:37.213Z,1.90
2019-01-20T10:54:40.791Z,1.92
2019-01-20T10:55:44.297Z,1.93
2019-01-20T10:56:52.214Z,1.97
2019-01-20T10:57:55.646Z,1.97
2019-01-20T10:58:59.242Z,2.00
2019-01-20T11:00:02.821Z,2.04
2019-01-20T11:01:06.318Z,2.09
2019-01-20T11:02:09.936Z,2.15
2019-01-20T11:03:13.505Z,2.20
2019-01-20T11:04:17.047Z,2.26
2019-01-20T11:05:25.031Z,2.32
2019-01-20T11:06:25.934Z,2.33
2019-01-20T11:07:29.396Z,2.32
2019-01-20T11:08:32.843Z,2.38
2019-01-20T11:09:36.287Z,2.43
2019-01-20T11:10:40.198Z,2.49
2019-01-20T11:11:43.752Z,2.47
2019-01-20T11:12:47.426Z,2.44
2019-01-20T11:13:51.043Z,2.48
2019-01-20T11:14:54.580Z,2.52
2019-01-20T11:15:58.039Z,2.48
2019-01-20T11:17:01.643Z,2.50
2019-01-20T11:18:05.343Z,2.54
2019-01-20T11:19:08.943Z,2.60
2019-01-20T11:20:18.163Z,2.65
2019-01-20T11:21:21.731Z,2.65
2019-01-20T11:22:25.273Z,2.68
2019-01-20T11:23:32.873Z,2.67
2019-01-20T11:24:36.053Z,2.73
2019-01-20T11:25:42.279Z,2.75
2019-01-20T11:26:45.842Z,2.78
2019-01-20T11:27:49.419Z,2.79
2019-01-20T11:28:52.942Z,2.81
2019-01-20T11:29:56.449Z,2.83
2019-01-20T11:31:00.161Z,2.88
2019-01-20T11:32:03.747Z,2.87
2019-01-20T11:33:07.466Z,2.89
2019-01-20T11:34:11.047Z,2.91
2019-01-20T11:35:19.292Z,2.86
2019-01-20T11:36:22.946Z,2.78
2019-01-20T11:37:26.469Z,2.77
2019-01-20T11:38:29.984Z,2.81
2019-01-20T11:39:33.560Z,2.82
2019-01-20T11:40:37.067Z,2.83
2019-01-20T11:41:40.505Z,2.82
2019-01-20T11:42:44.108Z,2.85
2019-01-20T11:43:47.704Z,2.83
2019-01-20T11:44:51.157Z,2.81
2019-01-20T11:45:54.682Z,2.79
2019-01-20T11:46:58.199Z,2.82
2019-01-20T11:48:01.783Z,2.80
2019-01-20T11:49:05.433Z,2.78
2019-01-20T11:50:12.001Z,2.82
2019-01-20T11:51:15.495Z,2.84
2019-01-20T11:52:19.117Z,2.85
2019-01-20T11:53:22.815Z,2.86
2019-01-20T11:54:26.252Z,2.88
2019-01-20T11:55:29.901Z,2.87
2019-01-20T11:56:33.485Z,2.83
2019-01-20T11:57:37.025Z,2.83
2019-01-20T11:58:40.909Z,2.81
2019-01-20T11:59:44.403Z,2.81
2019-01-20T12:00:47.920Z,2.81
2019-01-20T12:01:51.354Z,2.83
2019-01-20T12:02:54.878Z,2.83
2019-01-20T12:03:58.307Z,2.86
2019-01-20T12:05:01.841Z,2.85
2019-01-20T12:06:05.625Z,2.83
2019-01-20T12:07:09.319Z,2.78
2019-01-20T12:08:13.058Z,2.76
2019-01-20T12:09:16.592Z,2.76
2019-01-20T12:10:20.275Z,2.81
2019-01-20T12:11:23.789Z,2.86
2019-01-20T12:12:27.828Z,2.85
2019-01-20T12:13:31.669Z,2.93
2019-01-20T12:14:35.335Z,2.91
2019-01-20T12:15:39.190Z,2.91
2019-01-20T12:16:42.694Z,2.98
2019-01-20T12:17:46.289Z,3.00
2019-01-20T12:18:50.497Z,2.99
2019-01-20T12:19:54.087Z,2.99
2019-01-20T12:20:57.622Z,3.03
2019-01-20T12:22:01.107Z,3.04
2019-01-20T12:23:05.415Z,3.11
2019-01-20T12:24:08.944Z,3.15
2019-01-20T12:25:17.852Z,3.22
2019-01-20T12:26:21.433Z,3.23
2019-01-20T12:27:24.897Z,3.15
2019-01-20T12:28:28.327Z,3.12
2019-01-20T12:29:31.836Z,3.13
2019-01-20T12:30:39.400Z,3.15
2019-01-20T12:31:42.826Z,3.17
2019-01-20T12:32:46.486Z,3.10
2019-01-20T12:33:49.919Z,3.03
2019-01-20T12:34:53.424Z,3.01
2019-01-20T12:35:57.127Z,3.02
2019-01-20T12:37:00.570Z,3.04
2019-01-20T12:38:04.409Z,3.06
2019-01-20T12:39:08.722Z,3.12
2019-01-20T12:40:15.770Z,3.14
2019-01-20T12:41:19.340Z,3.18
2019-01-20T12:42:23.062Z,3.21
2019-01-20T12:43:26.717Z,3.22
2019-01-20T12:44:31.579Z,3.22
2019-01-20T12:45:35.267Z,3.20
2019-01-20T12:46:39.156Z,3.15
2019-01-20T12:47:42.846Z,3.11
2019-01-20T12:48:46.426Z,3.10
2019-01-20T12:49:50.256Z,3.08
2019-01-20T12:50:58.428Z,3.10
2019-01-20T12:52:19.972Z,3.11
2019-01-20T12:53:23.690Z,3.22
2019-01-20T12:54:27.237Z,3.20
2019-01-20T12:55:31.356Z,3.19
2019-01-20T12:56:34.912Z,3.26
2019-01-20T12:57:38.509Z,3.23
2019-01-20T12:58:42.084Z,3.22
2019-01-20T12:59:45.685Z,3.21
2019-01-20T13:00:49.208Z,3.22
2019-01-20T13:01:52.646Z,3.22
2019-01-20T13:02:56.350Z,3.21
2019-01-20T13:03:59.936Z,3.15
2019-01-20T13:05:04.625Z,3.16
2019-01-20T13:06:08.129Z,3.21
2019-01-20T13:07:11.719Z,3.22
2019-01-20T13:08:15.262Z,3.20
2019-01-20T13:09:20.621Z,3.13
2019-01-20T13:10:24.292Z,3.06
2019-01-20T13:11:27.808Z,2.89
2019-01-20T13:12:31.380Z,3.07
2019-01-20T13:13:34.984Z,3.04
2019-01-20T13:14:39.092Z,2.99
2019-01-20T13:15:42.902Z,2.97
2019-01-20T13:16:46.445Z,3.00
2019-01-20T13:17:49.985Z,3.00
2019-01-20T13:18:53.449Z,3.00
2019-01-20T13:19:57.020Z,2.97
2019-01-20T13:21:00.532Z,2.93
2019-01-20T13:22:04.049Z,2.86
2019-01-20T13:23:07.666Z,2.79
2019-01-20T13:24:11.114Z,2.73
2019-01-20T13:25:17.559Z,2.75
2019-01-20T13:26:21.018Z,2.72
2019-01-20T13:27:24.552Z,2.66
2019-01-20T13:28:28.197Z,2.67
2019-01-20T13:29:31.603Z,2.69
2019-01-20T13:30:35.184Z,2.65
2019-01-20T13:31:38.791Z,2.66
2019-01-20T13:32:42.512Z,2.64
2019-01-20T13:33:46.051Z,2.62
2019-01-20T13:34:49.608Z,2.64
2019-01-20T13:35:53.187Z,2.66
2019-01-20T13:36:56.708Z,2.61
2019-01-20T13:38:08.542Z,2.61
2019-01-20T13:39:12.337Z,2.59
2019-01-20T13:40:27.575Z,2.62
2019-01-20T13:41:31.410Z,2.65
2019-01-20T13:42:34.851Z,2.66
2019-01-20T13:43:38.374Z,2.65
2019-01-20T13:44:46.160Z,2.67
2019-01-20T13:45:47.081Z,2.63
2019-01-20T13:46:50.545Z,2.66
2019-01-20T13:47:54.090Z,2.68
2019-01-20T13:48:57.685Z,2.70
2019-01-20T13:50:01.136Z,2.63